createdAt,value
2018-07-07T00:00:49.851Z,99.99
2018-07-07T00:01:50.096Z,99.99
2018-07-07T00:02:50.335Z,99.99
2018-07-07T00:03:50.575Z,99.99
2018-07-07T00:04:50.814Z,99.99
2018-07-07T00:05:51.055Z,99.99
2018-07-07T00:06:51.294Z,99.99
2018-07-07T00:07:51.539Z,99.99
2018-07-07T00:08:51.775Z,99.99
2018-07-07T00:09:52.016Z,99.99
2018-07-07T00:10:52.256Z,99.99
2018-07-07T00:11:52.496Z,99.99
2018-07-07T00:12:52.739Z,99.99
2018-07-07T00:13:52.978Z,99.99
2018-07-07T00:14:53.218Z,99.99
2018-07-07T00:15:53.457Z,99.99
2018-07-07T00:16:53.699Z,99.99
2018-07-07T00:17:53.941Z,99.99
2018-07-07T00:18:54.181Z,99.99
2018-07-07T00:19:54.420Z,99.99
2018-07-07T00:20:54.661Z,99.99
2018-07-07T00:21:54.901Z,99.99
2018-07-07T00:22:55.142Z,99.99
2018-07-07T00:23:55.382Z,99.99
2018-07-07T00:24:55.623Z,99.99
2018-07-07T00:25:55.863Z,99.99
2018-07-07T00:26:56.105Z,99.99
2018-07-07T00:27:56.346Z,99.99
2018-07-07T00:28:56.586Z,99.99
2018-07-07T00:29:56.826Z,99.99
2018-07-07T00:30:57.069Z,99.99
2018-07-07T00:31:57.310Z,99.99
2018-07-07T00:32:57.550Z,99.99
2018-07-07T00:33:57.789Z,99.99
2018-07-07T00:34:58.029Z,99.99
2018-07-07T00:35:58.270Z,99.99
2018-07-07T00:36:58.510Z,99.99
2018-07-07T00:37:58.749Z,99.99
2018-07-07T00:38:58.989Z,99.99
2018-07-07T00:39:59.229Z,99.99
2018-07-07T00:40:59.470Z,99.99
2018-07-07T00:41:59.711Z,99.99
2018-07-07T00:42:59.951Z,99.99
2018-07-07T00:44:00.195Z,99.99
2018-07-07T00:45:00.433Z,99.99
2018-07-07T00:46:00.673Z,99.99
2018-07-07T00:47:00.913Z,99.99
2018-07-07T00:48:01.154Z,99.99
2018-07-07T00:49:01.391Z,99.99
2018-07-07T00:50:01.636Z,99.99
2018-07-07T00:51:01.874Z,99.99
2018-07-07T00:52:02.115Z,99.99
2018-07-07T00:53:02.357Z,99.99
2018-07-07T00:54:02.597Z,99.99
2018-07-07T00:55:02.840Z,99.99
2018-07-07T00:56:03.073Z,99.99
2018-07-07T00:57:03.316Z,99.99
2018-07-07T00:58:03.555Z,99.99
2018-07-07T00:59:03.794Z,99.99
2018-07-07T01:00:04.038Z,99.99
2018-07-07T01:01:04.274Z,99.99
2018-07-07T01:02:04.515Z,99.99
2018-07-07T01:03:04.755Z,99.99
2018-07-07T01:04:04.995Z,99.99
2018-07-07T01:05:05.235Z,99.99
2018-07-07T01:06:05.474Z,99.99
2018-07-07T01:07:05.713Z,99.99
2018-07-07T01:08:05.956Z,99.99
2018-07-07T01:09:06.194Z,99.99
2018-07-07T01:10:06.435Z,99.99
2018-07-07T01:11:06.676Z,99.99
2018-07-07T01:12:06.917Z,99.99
2018-07-07T01:13:07.159Z,99.99
2018-07-07T01:14:07.398Z,99.99
2018-07-07T01:15:07.638Z,99.99
2018-07-07T01:16:07.878Z,99.99
2018-07-07T01:17:08.120Z,99.99
2018-07-07T01:18:08.359Z,99.99
2018-07-07T01:19:08.599Z,99.99
2018-07-07T01:20:08.840Z,99.99
2018-07-07T01:21:09.081Z,99.99
2018-07-07T01:22:09.322Z,99.99
2018-07-07T01:23:09.562Z,99.99
2018-07-07T01:24:09.805Z,99.99
2018-07-07T01:25:10.043Z,99.99
2018-07-07T01:26:10.284Z,99.99
2018-07-07T01:27:10.525Z,99.99
2018-07-07T01:28:10.765Z,99.99
2018-07-07T01:29:11.008Z,99.99
2018-07-07T01:30:11.248Z,99.99
2018-07-07T01:31:11.490Z,99.99
2018-07-07T01:32:11.728Z,99.99
2018-07-07T01:33:11.967Z,99.99
2018-07-07T01:34:12.206Z,99.99
2018-07-07T01:35:12.446Z,99.99
2018-07-07T01:36:12.687Z,99.99
2018-07-07T01:37:12.925Z,99.99
2018-07-07T01:38:13.168Z,99.99
2018-07-07T01:39:13.408Z,99.99
2018-07-07T01:40:13.645Z,99.99
2018-07-07T01:41:13.887Z,99.99
2018-07-07T01:42:14.126Z,99.99
2018-07-07T01:43:14.366Z,99.99
2018-07-07T01:44:14.605Z,99.99
2018-07-07T01:45:14.846Z,99.99
2018-07-07T01:46:15.086Z,99.99
2018-07-07T01:47:15.326Z,99.99
2018-07-07T01:48:15.565Z,99.99
2018-07-07T01:49:15.806Z,99.99
2018-07-07T01:50:16.046Z,99.99
2018-07-07T01:51:16.286Z,99.99
2018-07-07T01:52:16.525Z,99.99
2018-07-07T01:53:16.765Z,99.99
2018-07-07T01:54:17.006Z,99.99
2018-07-07T01:55:17.246Z,99.99
2018-07-07T01:56:17.489Z,99.99
2018-07-07T01:57:17.725Z,99.99
2018-07-07T01:58:17.965Z,99.99
2018-07-07T01:59:18.204Z,99.99
2018-07-07T02:00:18.445Z,99.99
2018-07-07T02:01:18.684Z,99.99
2018-07-07T02:02:18.924Z,99.99
2018-07-07T02:03:19.162Z,99.99
2018-07-07T02:04:19.405Z,99.99
2018-07-07T02:05:19.643Z,99.89
2018-07-07T02:06:19.883Z,99.99
2018-07-07T02:07:20.123Z,99.99
2018-07-07T02:08:20.363Z,99.99
2018-07-07T02:09:20.608Z,98.70
2018-07-07T02:10:20.892Z,99.99
2018-07-07T02:11:21.084Z,97.70
2018-07-07T02:12:21.324Z,99.99
2018-07-07T02:13:21.564Z,99.66
2018-07-07T02:14:21.804Z,99.13
2018-07-07T02:15:22.044Z,99.32
2018-07-07T02:16:22.282Z,99.99
2018-07-07T02:17:22.524Z,99.99
2018-07-07T02:18:22.764Z,99.99
2018-07-07T02:19:23.003Z,99.99
2018-07-07T02:20:23.243Z,99.99
2018-07-07T02:21:23.482Z,99.99
2018-07-07T02:22:23.724Z,99.99
2018-07-07T02:23:23.963Z,99.99
2018-07-07T02:24:24.203Z,98.99
2018-07-07T02:25:24.441Z,99.99
2018-07-07T02:26:24.682Z,98.80
2018-07-07T02:27:24.921Z,99.99
2018-07-07T02:28:25.166Z,99.95
2018-07-07T02:29:25.405Z,97.94
2018-07-07T02:30:25.642Z,98.42
2018-07-07T02:31:25.880Z,95.70
2018-07-07T02:32:26.119Z,97.03
2018-07-07T02:33:26.359Z,97.03
2018-07-07T02:34:26.600Z,95.89
2018-07-07T02:35:26.840Z,95.51
2018-07-07T02:36:27.080Z,95.03
2018-07-07T02:37:27.319Z,94.93
2018-07-07T02:38:27.559Z,94.37
2018-07-07T02:39:27.798Z,94.74
2018-07-07T02:40:28.037Z,93.70
2018-07-07T02:41:28.277Z,95.03
2018-07-07T02:42:28.516Z,96.75
2018-07-07T02:43:28.764Z,98.46
2018-07-07T02:44:28.997Z,97.80
2018-07-07T02:45:29.236Z,99.99
2018-07-07T02:46:29.476Z,99.99
2018-07-07T02:47:29.715Z,99.99
2018-07-07T02:48:29.953Z,99.99
2018-07-07T02:49:30.194Z,99.99
2018-07-07T02:50:30.433Z,99.37
2018-07-07T02:51:30.672Z,98.90
2018-07-07T02:52:30.912Z,95.41
2018-07-07T02:53:31.157Z,97.32
2018-07-07T02:54:31.393Z,97.99
2018-07-07T02:55:31.633Z,97.89
2018-07-07T02:56:31.871Z,98.36
2018-07-07T02:57:32.108Z,97.51
2018-07-07T02:58:32.351Z,99.60
2018-07-07T02:59:32.588Z,98.18
2018-07-07T03:00:32.828Z,98.18
2018-07-07T03:01:33.068Z,98.18
2018-07-07T03:02:33.305Z,95.22
2018-07-07T03:03:33.546Z,95.22
2018-07-07T03:04:33.786Z,97.84
2018-07-07T03:05:34.022Z,99.08
2018-07-07T03:06:34.262Z,99.27
2018-07-07T03:07:34.500Z,99.55
2018-07-07T03:08:34.742Z,99.99
2018-07-07T03:09:34.981Z,99.99
2018-07-07T03:10:35.218Z,99.99
2018-07-07T03:11:35.456Z,96.08
2018-07-07T03:12:35.697Z,93.93
2018-07-07T03:13:35.941Z,92.69
2018-07-07T03:14:36.178Z,90.79
2018-07-07T03:15:36.416Z,91.17
2018-07-07T03:16:36.656Z,90.98
2018-07-07T03:17:36.894Z,89.75
2018-07-07T03:18:37.134Z,86.12
2018-07-07T03:19:37.372Z,84.88
2018-07-07T03:20:37.612Z,81.65
2018-07-07T03:21:37.853Z,88.84
2018-07-07T03:22:38.089Z,83.80
2018-07-07T03:23:38.331Z,88.37
2018-07-07T03:24:38.567Z,84.22
2018-07-07T03:25:38.809Z,85.93
2018-07-07T03:26:39.046Z,84.03
2018-07-07T03:27:39.285Z,86.12
2018-07-07T03:28:39.524Z,85.27
2018-07-07T03:29:39.763Z,84.79
2018-07-07T03:30:40.002Z,84.60
2018-07-07T03:31:40.244Z,84.88
2018-07-07T03:32:40.481Z,86.12
2018-07-07T03:33:40.718Z,85.17
2018-07-07T03:34:40.958Z,84.22
2018-07-07T03:35:41.196Z,82.98
2018-07-07T03:36:41.436Z,82.98
2018-07-07T03:37:41.674Z,84.03
2018-07-07T03:38:41.911Z,88.70
2018-07-07T03:39:42.150Z,91.17
2018-07-07T03:40:42.389Z,99.99
2018-07-07T03:41:42.627Z,93.79
2018-07-07T03:42:42.866Z,99.60
2018-07-07T03:43:43.107Z,99.99
2018-07-07T03:44:43.346Z,99.99
2018-07-07T03:45:43.584Z,99.99
2018-07-07T03:46:43.826Z,98.80
2018-07-07T03:47:44.065Z,97.56
2018-07-07T03:48:44.304Z,95.27
2018-07-07T03:49:44.540Z,93.88
2018-07-07T03:50:44.781Z,91.98
2018-07-07T03:51:45.027Z,86.55
2018-07-07T03:52:45.261Z,82.92
2018-07-07T03:53:45.496Z,80.83
2018-07-07T03:54:45.741Z,75.01
2018-07-07T03:55:45.975Z,75.78
2018-07-07T03:56:46.213Z,69.68
2018-07-07T03:57:46.453Z,68.24
2018-07-07T03:58:46.702Z,70.63
2018-07-07T03:59:46.931Z,68.15
2018-07-07T04:00:47.169Z,65.86
2018-07-07T04:01:47.409Z,64.81
2018-07-07T04:02:47.648Z,73.77
2018-07-07T04:03:47.886Z,78.35
2018-07-07T04:04:48.127Z,77.25
2018-07-07T04:05:48.367Z,90.50
2018-07-07T04:06:48.607Z,99.37
2018-07-07T04:07:48.847Z,99.99
2018-07-07T04:08:49.085Z,98.42
2018-07-07T04:09:49.327Z,99.99
2018-07-07T04:10:49.565Z,96.41
2018-07-07T04:11:49.804Z,99.80
2018-07-07T04:12:50.045Z,99.99
2018-07-07T04:13:50.284Z,99.99
2018-07-07T04:14:50.523Z,99.99
2018-07-07T04:15:50.762Z,99.99
2018-07-07T04:16:51.002Z,99.99
2018-07-07T04:17:51.240Z,99.71
2018-07-07T04:18:51.483Z,99.99
2018-07-07T04:19:51.721Z,99.99
2018-07-07T04:20:51.966Z,99.99
2018-07-07T04:21:52.201Z,99.99
2018-07-07T04:22:52.442Z,99.99
2018-07-07T04:23:52.681Z,99.99
2018-07-07T04:24:52.925Z,99.99
2018-07-07T04:25:53.162Z,99.99
2018-07-07T04:26:53.402Z,99.99
2018-07-07T04:27:53.643Z,99.99
2018-07-07T04:28:53.885Z,98.57
2018-07-07T04:29:54.127Z,99.99
2018-07-07T04:30:54.365Z,99.99
2018-07-07T04:31:54.608Z,99.99
2018-07-07T04:32:54.852Z,99.99
2018-07-07T04:33:55.094Z,99.99
2018-07-07T04:34:55.335Z,99.99
2018-07-07T04:35:55.582Z,99.99
2018-07-07T04:36:55.817Z,99.99
2018-07-07T04:37:56.058Z,99.99
2018-07-07T04:38:56.300Z,99.99
2018-07-07T04:39:56.539Z,99.99
2018-07-07T04:40:56.782Z,99.99
2018-07-07T04:41:57.023Z,99.99
2018-07-07T04:42:57.266Z,99.99
2018-07-07T04:43:57.504Z,99.99
2018-07-07T04:44:57.744Z,99.99
2018-07-07T04:45:58.032Z,99.99
2018-07-07T04:46:58.226Z,99.99
2018-07-07T04:47:58.471Z,99.99
2018-07-07T04:48:58.709Z,99.99
2018-07-07T04:49:58.949Z,99.99
2018-07-07T04:50:59.190Z,99.99
2018-07-07T04:51:59.432Z,99.99
2018-07-07T04:52:59.675Z,99.99
2018-07-07T04:53:59.917Z,99.99
2018-07-07T04:55:00.163Z,99.99
2018-07-07T04:56:00.402Z,99.99
2018-07-07T04:57:00.646Z,99.99
2018-07-07T04:58:00.888Z,99.99
2018-07-07T04:59:01.130Z,99.99
2018-07-07T05:00:01.375Z,99.99
2018-07-07T05:01:01.620Z,99.99
2018-07-07T05:02:01.861Z,99.99
2018-07-07T05:03:02.103Z,99.99
2018-07-07T05:04:02.349Z,99.99
2018-07-07T05:05:02.590Z,99.99
2018-07-07T05:06:02.833Z,99.99
2018-07-07T05:07:03.075Z,99.99
2018-07-07T05:08:03.319Z,99.99
2018-07-07T05:09:03.558Z,99.99
2018-07-07T05:10:03.800Z,99.99
2018-07-07T05:11:04.044Z,99.99
2018-07-07T05:12:04.286Z,99.99
2018-07-07T05:13:04.531Z,99.99
2018-07-07T05:14:04.771Z,99.99
2018-07-07T05:15:05.012Z,99.99
2018-07-07T05:16:05.254Z,99.99
2018-07-07T05:17:05.496Z,99.99
2018-07-07T05:18:05.740Z,99.99
2018-07-07T05:19:05.984Z,99.99
2018-07-07T05:20:06.232Z,99.99
2018-07-07T05:21:06.471Z,99.99
2018-07-07T05:22:06.714Z,99.99
2018-07-07T05:23:06.956Z,99.99
2018-07-07T05:24:07.199Z,99.99
2018-07-07T05:25:07.441Z,99.99
2018-07-07T05:26:07.684Z,99.99
2018-07-07T05:27:07.927Z,99.99
2018-07-07T05:28:08.172Z,99.87
2018-07-07T05:29:08.416Z,99.99
2018-07-07T05:30:08.659Z,99.99
2018-07-07T05:31:08.903Z,99.99
2018-07-07T05:32:09.227Z,99.99
2018-07-07T05:33:09.392Z,98.10
2018-07-07T05:34:09.638Z,98.86
2018-07-07T05:35:09.880Z,99.99
2018-07-07T05:36:10.124Z,99.99
2018-07-07T05:37:10.406Z,98.38
2018-07-07T05:38:10.613Z,99.29
2018-07-07T05:39:10.856Z,99.68
2018-07-07T05:40:11.099Z,99.44
2018-07-07T05:41:11.344Z,97.14
2018-07-07T05:42:11.588Z,99.73
2018-07-07T05:43:11.830Z,99.87
2018-07-07T05:44:12.075Z,99.99
2018-07-07T05:45:12.321Z,97.19
2018-07-07T05:46:12.561Z,94.02
2018-07-07T05:47:12.805Z,89.17
2018-07-07T05:48:13.054Z,84.22
2018-07-07T05:49:13.296Z,84.70
2018-07-07T05:50:13.540Z,83.45
2018-07-07T05:51:13.787Z,75.52
2018-07-07T05:52:14.030Z,73.02
2018-07-07T05:53:14.276Z,70.27
2018-07-07T05:54:14.521Z,71.04
2018-07-07T05:55:14.767Z,67.48
2018-07-07T05:56:15.018Z,62.77
2018-07-07T05:57:15.301Z,63.64
2018-07-07T05:58:15.506Z,62.51
2018-07-07T05:59:15.753Z,64.12
2018-07-07T06:00:15.997Z,62.19
2018-07-07T06:01:16.242Z,60.46
2018-07-07T06:02:16.488Z,58.83
2018-07-07T06:03:16.732Z,58.83
2018-07-07T06:04:16.977Z,58.45
2018-07-07T06:05:17.224Z,61.43
2018-07-07T06:06:17.469Z,63.06
2018-07-07T06:07:17.716Z,61.14
2018-07-07T06:08:17.960Z,60.66
2018-07-07T06:09:18.208Z,60.56
2018-07-07T06:10:18.454Z,59.15
2018-07-07T06:11:18.698Z,57.32
2018-07-07T06:12:18.946Z,57.15
2018-07-07T06:13:19.192Z,57.99
2018-07-07T06:14:19.448Z,58.95
2018-07-07T06:15:19.687Z,59.72
2018-07-07T06:16:19.929Z,56.91
2018-07-07T06:17:20.177Z,57.45
2018-07-07T06:18:20.467Z,57.36
2018-07-07T06:19:20.668Z,55.66
2018-07-07T06:20:20.916Z,55.27
2018-07-07T06:21:21.161Z,53.92
2018-07-07T06:22:21.407Z,52.77
2018-07-07T06:23:21.657Z,52.48
2018-07-07T06:24:21.903Z,52.77
2018-07-07T06:25:22.146Z,52.61
2018-07-07T06:26:22.437Z,52.97
2018-07-07T06:27:22.637Z,52.39
2018-07-07T06:28:22.886Z,52.03
2018-07-07T06:29:23.131Z,51.26
2018-07-07T06:30:23.378Z,51.07
2018-07-07T06:31:23.624Z,51.26
2018-07-07T06:32:23.871Z,51.29
2018-07-07T06:33:24.120Z,51.19
2018-07-07T06:34:24.365Z,49.58
2018-07-07T06:35:24.612Z,49.77
2018-07-07T06:36:24.858Z,49.38
2018-07-07T06:37:25.188Z,48.03
2018-07-07T06:38:25.353Z,47.56
2018-07-07T06:39:25.600Z,47.92
2018-07-07T06:40:25.847Z,48.59
2018-07-07T06:41:26.092Z,48.69
2018-07-07T06:42:26.341Z,48.69
2018-07-07T06:43:26.586Z,49.17
2018-07-07T06:44:26.832Z,48.59
2018-07-07T06:45:27.080Z,48.02
2018-07-07T06:46:27.328Z,48.49
2018-07-07T06:47:27.576Z,47.53
2018-07-07T06:48:27.824Z,47.15
2018-07-07T06:49:28.072Z,46.86
2018-07-07T06:50:28.316Z,47.72
2018-07-07T06:51:28.562Z,47.34
2018-07-07T06:52:28.810Z,47.15
2018-07-07T06:53:29.055Z,48.02
2018-07-07T06:54:29.305Z,48.11
2018-07-07T06:55:29.551Z,48.21
2018-07-07T06:56:29.797Z,47.53
2018-07-07T06:57:30.046Z,48.03
2018-07-07T06:58:30.290Z,47.08
2018-07-07T06:59:30.572Z,47.10
2018-07-07T07:00:30.784Z,47.27
2018-07-07T07:01:31.030Z,45.73
2018-07-07T07:02:31.277Z,44.89
2018-07-07T07:03:31.539Z,45.84
2018-07-07T07:04:31.774Z,45.56
2018-07-07T07:05:32.023Z,45.07
2018-07-07T07:06:32.327Z,45.27
2018-07-07T07:07:32.516Z,44.40
2018-07-07T07:08:32.765Z,43.55
2018-07-07T07:09:33.010Z,43.17
2018-07-07T07:10:33.258Z,43.27
2018-07-07T07:11:33.505Z,43.17
2018-07-07T07:12:33.751Z,42.11
2018-07-07T07:13:34.000Z,42.11
2018-07-07T07:14:34.248Z,41.44
2018-07-07T07:15:34.495Z,42.02
2018-07-07T07:16:34.737Z,40.01
2018-07-07T07:17:34.987Z,41.44
2018-07-07T07:18:35.234Z,42.02
2018-07-07T07:19:35.483Z,42.11
2018-07-07T07:20:35.732Z,41.24
2018-07-07T07:21:35.982Z,39.99
2018-07-07T07:22:36.229Z,40.09
2018-07-07T07:23:36.477Z,39.39
2018-07-07T07:24:36.729Z,39.29
2018-07-07T07:25:36.971Z,38.14
2018-07-07T07:26:37.216Z,37.96
2018-07-07T07:27:37.464Z,36.73
2018-07-07T07:28:37.714Z,36.19
2018-07-07T07:29:37.960Z,35.06
2018-07-07T07:30:38.207Z,33.57
2018-07-07T07:31:38.458Z,32.75
2018-07-07T07:32:38.703Z,31.13
2018-07-07T07:33:38.952Z,29.80
2018-07-07T07:34:39.198Z,28.86
2018-07-07T07:35:39.447Z,28.00
2018-07-07T07:36:39.695Z,27.14
2018-07-07T07:37:39.944Z,27.61
2018-07-07T07:38:40.193Z,27.42
2018-07-07T07:39:40.441Z,28.19
2018-07-07T07:40:40.689Z,28.47
2018-07-07T07:41:40.938Z,28.57
2018-07-07T07:42:41.189Z,28.49
2018-07-07T07:43:41.441Z,28.47
2018-07-07T07:44:41.688Z,28.00
2018-07-07T07:45:41.938Z,29.55
2018-07-07T07:46:42.189Z,29.22
2018-07-07T07:47:42.436Z,30.88
2018-07-07T07:48:42.687Z,31.57
2018-07-07T07:49:42.938Z,31.48
2018-07-07T07:50:43.189Z,30.41
2018-07-07T07:51:43.439Z,30.24
2018-07-07T07:52:43.691Z,29.76
2018-07-07T07:53:43.939Z,29.16
2018-07-07T07:54:44.192Z,29.76
2018-07-07T07:55:44.442Z,31.57
2018-07-07T07:56:44.694Z,32.44
2018-07-07T07:57:44.946Z,31.77
2018-07-07T07:58:45.197Z,30.93
2018-07-07T07:59:45.447Z,30.74
2018-07-07T08:00:45.698Z,30.55
2018-07-07T08:01:45.948Z,30.96
2018-07-07T08:02:46.205Z,29.69
2018-07-07T08:03:46.455Z,28.99
2018-07-07T08:04:46.715Z,29.88
2018-07-07T08:05:46.955Z,31.40
2018-07-07T08:06:47.208Z,31.48
2018-07-07T08:07:47.462Z,31.84
2018-07-07T08:08:47.712Z,33.04
2018-07-07T08:09:47.963Z,31.51
2018-07-07T08:10:48.216Z,30.83
2018-07-07T08:11:48.469Z,30.25
2018-07-07T08:12:48.720Z,30.51
2018-07-07T08:13:48.971Z,32.28
2018-07-07T08:14:49.227Z,31.41
2018-07-07T08:15:49.476Z,31.32
2018-07-07T08:16:49.728Z,30.41
2018-07-07T08:17:49.980Z,31.18
2018-07-07T08:18:50.229Z,31.15
2018-07-07T08:19:50.483Z,32.87
2018-07-07T08:20:50.735Z,33.44
2018-07-07T08:21:50.989Z,33.96
2018-07-07T08:22:51.290Z,33.94
2018-07-07T08:23:51.488Z,33.94
2018-07-07T08:24:51.743Z,34.14
2018-07-07T08:25:51.997Z,33.51
2018-07-07T08:26:52.247Z,33.06
2018-07-07T08:27:52.497Z,31.24
2018-07-07T08:28:52.749Z,29.43
2018-07-07T08:29:53.002Z,28.65
2018-07-07T08:30:53.253Z,28.15
2018-07-07T08:31:53.510Z,29.00
2018-07-07T08:32:53.759Z,29.40
2018-07-07T08:33:54.010Z,28.22
2018-07-07T08:34:54.263Z,29.88
2018-07-07T08:35:54.515Z,29.69
2018-07-07T08:36:54.767Z,28.63
2018-07-07T08:37:55.018Z,28.74
2018-07-07T08:38:55.271Z,28.67
2018-07-07T08:39:55.527Z,27.13
2018-07-07T08:40:55.778Z,27.05
2018-07-07T08:41:56.099Z,26.07
2018-07-07T08:42:56.284Z,25.31
2018-07-07T08:43:56.537Z,26.07
2018-07-07T08:44:56.788Z,26.50
2018-07-07T08:45:57.028Z,27.94
2018-07-07T08:46:57.300Z,27.83
2018-07-07T08:47:57.553Z,27.97
2018-07-07T08:48:57.807Z,27.11
2018-07-07T08:49:58.061Z,26.54
2018-07-07T08:50:58.317Z,25.88
2018-07-07T08:51:58.572Z,25.26
2018-07-07T08:52:58.823Z,25.26
2018-07-07T08:53:59.076Z,26.29
2018-07-07T08:54:59.329Z,27.16
2018-07-07T08:55:59.582Z,27.05
2018-07-07T08:56:59.836Z,27.29
2018-07-07T08:58:00.090Z,26.53
2018-07-07T08:59:00.345Z,25.84
2018-07-07T09:00:00.597Z,26.62
2018-07-07T09:01:00.851Z,27.28
2018-07-07T09:02:01.106Z,28.07
2018-07-07T09:03:01.359Z,27.98
2018-07-07T09:04:01.613Z,26.54
2018-07-07T09:05:01.869Z,26.68
2018-07-07T09:06:02.123Z,25.70
2018-07-07T09:07:02.374Z,26.31
2018-07-07T09:08:02.629Z,27.39
2018-07-07T09:09:02.885Z,27.94
2018-07-07T09:10:03.144Z,28.70
2018-07-07T09:11:03.392Z,28.79
2018-07-07T09:12:03.647Z,29.02
2018-07-07T09:13:03.901Z,28.75
2018-07-07T09:14:04.153Z,27.01
2018-07-07T09:15:04.409Z,27.70
2018-07-07T09:16:04.660Z,26.73
2018-07-07T09:17:04.917Z,26.34
2018-07-07T09:18:05.166Z,26.64
2018-07-07T09:19:05.420Z,26.14
2018-07-07T09:20:05.673Z,27.48
2018-07-07T09:21:05.926Z,27.86
2018-07-07T09:22:06.182Z,28.05
2018-07-07T09:23:06.436Z,28.16
2018-07-07T09:24:06.691Z,27.89
2018-07-07T09:25:06.947Z,28.64
2018-07-07T09:26:07.198Z,28.00
2018-07-07T09:27:07.450Z,26.54
2018-07-07T09:28:07.706Z,26.84
2018-07-07T09:29:07.959Z,26.95
2018-07-07T09:30:08.212Z,26.91
2018-07-07T09:31:08.469Z,27.58
2018-07-07T09:32:08.721Z,27.97
2018-07-07T09:33:08.978Z,29.07
2018-07-07T09:34:09.231Z,27.23
2018-07-07T09:35:09.483Z,26.46
2018-07-07T09:36:09.738Z,25.60
2018-07-07T09:37:09.993Z,26.37
2018-07-07T09:38:10.244Z,25.89
2018-07-07T09:39:10.498Z,25.29
2018-07-07T09:40:10.756Z,25.49
2018-07-07T09:41:11.011Z,26.86
2018-07-07T09:42:11.264Z,26.48
2018-07-07T09:43:11.519Z,26.35
2018-07-07T09:44:11.813Z,26.27
2018-07-07T09:45:12.028Z,27.00
2018-07-07T09:46:12.284Z,28.45
2018-07-07T09:47:12.539Z,28.94
2018-07-07T09:48:12.794Z,28.77
2018-07-07T09:49:13.052Z,28.74
2018-07-07T09:50:13.304Z,28.94
2018-07-07T09:51:13.559Z,28.18
2018-07-07T09:52:13.812Z,28.03
2018-07-07T09:53:14.066Z,26.48
2018-07-07T09:54:14.319Z,25.72
2018-07-07T09:55:14.579Z,25.24
2018-07-07T09:56:14.844Z,24.27
2018-07-07T09:57:15.083Z,24.95
2018-07-07T09:58:15.339Z,25.93
2018-07-07T09:59:15.597Z,25.72
2018-07-07T10:00:15.853Z,25.13
2018-07-07T10:01:16.107Z,25.44
2018-07-07T10:02:16.363Z,25.73
2018-07-07T10:03:16.619Z,26.31
2018-07-07T10:04:16.874Z,26.84
2018-07-07T10:05:17.127Z,28.03
2018-07-07T10:06:17.383Z,27.45
2018-07-07T10:07:17.637Z,25.93
2018-07-07T10:08:17.891Z,26.81
2018-07-07T10:09:18.147Z,26.23
2018-07-07T10:10:18.404Z,26.05
2018-07-07T10:11:18.659Z,26.53
2018-07-07T10:12:18.918Z,25.48
2018-07-07T10:13:19.173Z,25.07
2018-07-07T10:14:19.427Z,26.15
2018-07-07T10:15:19.681Z,25.59
2018-07-07T10:16:19.938Z,25.29
2018-07-07T10:17:20.192Z,24.33
2018-07-07T10:18:20.450Z,23.56
2018-07-07T10:19:20.706Z,23.07
2018-07-07T10:20:20.964Z,23.27
2018-07-07T10:21:21.223Z,23.45
2018-07-07T10:22:21.482Z,23.22
2018-07-07T10:23:21.738Z,25.70
2018-07-07T10:24:21.997Z,25.81
2018-07-07T10:25:22.253Z,26.73
2018-07-07T10:26:22.574Z,28.97
2018-07-07T10:27:22.770Z,29.35
2018-07-07T10:28:23.026Z,29.57
2018-07-07T10:29:23.276Z,28.23
2018-07-07T10:30:23.539Z,26.89
2018-07-07T10:31:23.786Z,25.17
2018-07-07T10:32:24.044Z,25.17
2018-07-07T10:33:24.301Z,25.66
2018-07-07T10:34:24.557Z,25.37
2018-07-07T10:35:24.812Z,24.59
2018-07-07T10:36:25.070Z,23.71
2018-07-07T10:37:25.343Z,24.99
2018-07-07T10:38:25.585Z,24.59
2018-07-07T10:39:25.842Z,24.68
2018-07-07T10:40:26.098Z,25.17
2018-07-07T10:41:26.357Z,25.26
2018-07-07T10:42:26.613Z,25.02
2018-07-07T10:43:26.868Z,25.29
2018-07-07T10:44:27.125Z,26.18
2018-07-07T10:45:27.428Z,26.88
2018-07-07T10:46:27.641Z,26.76
2018-07-07T10:47:27.943Z,27.13
2018-07-07T10:48:28.155Z,26.86
2018-07-07T10:49:28.410Z,26.28
2018-07-07T10:50:28.666Z,25.60
2018-07-07T10:51:28.923Z,25.42
2018-07-07T10:52:29.201Z,25.78
2018-07-07T10:53:29.457Z,25.18
2018-07-07T10:54:29.715Z,25.21
2018-07-07T10:55:29.976Z,23.83
2018-07-07T10:56:30.226Z,24.43
2018-07-07T10:57:30.481Z,25.15
2018-07-07T10:58:30.738Z,23.97
2018-07-07T10:59:30.994Z,23.58
2018-07-07T11:00:31.251Z,22.72
2018-07-07T11:01:31.506Z,22.14
2018-07-07T11:02:31.785Z,20.96
2018-07-07T11:03:32.017Z,22.03
2018-07-07T11:04:32.273Z,21.74
2018-07-07T11:05:32.529Z,22.20
2018-07-07T11:06:32.786Z,22.69
2018-07-07T11:07:33.041Z,22.48
2018-07-07T11:08:33.299Z,23.07
2018-07-07T11:09:33.555Z,23.27
2018-07-07T11:10:33.812Z,23.75
2018-07-07T11:11:34.069Z,23.55
2018-07-07T11:12:34.326Z,23.37
2018-07-07T11:13:34.588Z,22.61
2018-07-07T11:14:34.839Z,21.42
2018-07-07T11:15:35.095Z,22.49
2018-07-07T11:16:35.351Z,22.69
2018-07-07T11:17:35.607Z,23.86
2018-07-07T11:18:35.862Z,23.16
2018-07-07T11:19:36.118Z,22.69
2018-07-07T11:20:36.373Z,23.26
2018-07-07T11:21:36.636Z,22.56
2018-07-07T11:22:36.886Z,23.54
2018-07-07T11:23:37.149Z,23.83
2018-07-07T11:24:37.406Z,25.00
2018-07-07T11:25:37.664Z,23.73
2018-07-07T11:26:37.919Z,23.26
2018-07-07T11:27:38.174Z,22.99
2018-07-07T11:28:38.432Z,22.31
2018-07-07T11:29:38.687Z,22.81
2018-07-07T11:30:38.945Z,23.16
2018-07-07T11:31:39.202Z,24.24
2018-07-07T11:32:39.460Z,23.85
2018-07-07T11:33:39.716Z,22.71
2018-07-07T11:34:39.971Z,22.91
2018-07-07T11:35:40.225Z,22.81
2018-07-07T11:36:40.672Z,23.20
2018-07-07T11:37:40.738Z,23.02
2018-07-07T11:38:40.997Z,22.84
2018-07-07T11:39:41.246Z,22.72
2018-07-07T11:40:41.504Z,22.73
2018-07-07T11:41:41.760Z,23.41
2018-07-07T11:42:42.021Z,24.27
2018-07-07T11:43:42.273Z,24.29
2018-07-07T11:44:42.529Z,24.88
2018-07-07T11:45:42.785Z,23.99
2018-07-07T11:46:43.043Z,23.98
2018-07-07T11:47:43.297Z,24.53
2018-07-07T11:48:43.556Z,25.31
2018-07-07T11:49:43.808Z,24.92
2018-07-07T11:50:44.069Z,24.35
2018-07-07T11:51:44.324Z,24.55
2018-07-07T11:52:44.583Z,23.70
2018-07-07T11:53:44.837Z,23.88
2018-07-07T11:54:45.091Z,24.87
2018-07-07T11:55:45.346Z,25.13
2018-07-07T11:56:45.603Z,25.83
2018-07-07T11:57:45.861Z,25.35
2018-07-07T11:58:46.116Z,24.77
2018-07-07T11:59:46.371Z,23.61
2018-07-07T12:00:46.627Z,24.29
2018-07-07T12:01:46.887Z,22.92
2018-07-07T12:02:47.141Z,23.39
2018-07-07T12:03:47.397Z,23.69
2018-07-07T12:04:47.699Z,24.48
2018-07-07T12:05:47.908Z,23.31
2018-07-07T12:06:48.165Z,24.30
2018-07-07T12:07:48.423Z,23.63
2018-07-07T12:08:48.677Z,23.13
2018-07-07T12:09:48.935Z,23.63
2018-07-07T12:10:49.193Z,23.52
2018-07-07T12:11:49.446Z,24.07
2018-07-07T12:12:49.704Z,25.24
2018-07-07T12:13:49.959Z,24.68
2018-07-07T12:14:50.213Z,24.49
2018-07-07T12:15:50.469Z,24.01
2018-07-07T12:16:50.726Z,23.72
2018-07-07T12:17:50.982Z,23.33
2018-07-07T12:18:51.238Z,22.94
2018-07-07T12:19:51.495Z,24.19
2018-07-07T12:20:51.752Z,24.25
2018-07-07T12:21:52.009Z,25.54
2018-07-07T12:22:52.264Z,25.17
2018-07-07T12:23:52.520Z,24.86
2018-07-07T12:24:52.832Z,24.58
2018-07-07T12:25:53.030Z,23.41
2018-07-07T12:26:53.286Z,22.88
2018-07-07T12:27:53.541Z,23.66
2018-07-07T12:28:53.797Z,22.99
2018-07-07T12:29:54.054Z,23.09
2018-07-07T12:30:54.313Z,23.34
2018-07-07T12:31:54.568Z,24.90
2018-07-07T12:32:54.827Z,25.89
2018-07-07T12:33:55.081Z,25.40
2018-07-07T12:34:55.338Z,25.42
2018-07-07T12:35:55.594Z,23.77
2018-07-07T12:36:55.850Z,23.48
2018-07-07T12:37:56.106Z,23.38
2018-07-07T12:38:56.362Z,23.35
2018-07-07T12:39:56.618Z,25.01
2018-07-07T12:40:56.873Z,24.05
2018-07-07T12:41:57.129Z,24.74
2018-07-07T12:42:57.383Z,25.35
2018-07-07T12:43:57.639Z,24.16
2018-07-07T12:44:57.897Z,24.05
2018-07-07T12:45:58.234Z,25.06
2018-07-07T12:46:58.406Z,23.87
2018-07-07T12:47:58.660Z,23.55
2018-07-07T12:48:58.916Z,24.54
2018-07-07T12:49:59.171Z,23.08
2018-07-07T12:50:59.428Z,23.47
2018-07-07T12:51:59.707Z,24.04
2018-07-07T12:52:59.935Z,23.87
2018-07-07T12:54:00.191Z,23.86
2018-07-07T12:55:00.448Z,23.11
2018-07-07T12:56:00.705Z,23.11